sensor_id;sensor_type;location;lat;lon;timestamp;temperature;humidity
18974;DHT22;9621;48.690;9.466;2023-07-31T00:01:24;10.80;99.90
18974;DHT22;9621;48.690;9.466;2023-07-31T00:03:53;10.80;99.90
18974;DHT22;9621;48.690;9.466;2023-07-31T00:06:20;10.80;99.90
18974;DHT22;9621;48.690;9.466;2023-07-31T00:08:46;10.70;99.90
18974;DHT22;9621;48.690;9.466;2023-07-31T00:11:13;10.70;99.90
18974;DHT22;9621;48.690;9.466;2023-07-31T00:13:40;10.70;99.90
18974;DHT22;9621;48.690;9.466;2023-07-31T00:16:07;10.60;99.90
18974;DHT22;9621;48.690;9.466;2023-07-31T00:18:34;10.60;99.90
18974;DHT22;9621;48.690;9.466;2023-07-31T00:21:02;10.60;99.90
18974;DHT22;9621;48.690;9.466;2023-07-31T00:23:29;10.60;99.90
18974;DHT22;9621;48.690;9.466;2023-07-31T00:25:56;10.50;99.90
18974;DHT22;9621;48.690;9.466;2023-07-31T00:28:23;10.50;99.90
18974;DHT22;9621;48.690;9.466;2023-07-31T00:30:50;10.50;99.90
18974;DHT22;9621;48.690;9.466;2023-07-31T00:33:17;10.50;99.90
18974;DHT22;9621;48.690;9.466;2023-07-31T00:35:44;10.40;99.90
18974;DHT22;9621;48.690;9.466;2023-07-31T00:38:12;10.40;99.90
18974;DHT22;9621;48.690;9.466;2023-07-31T00:40:39;10.40;99.90
18974;DHT22;9621;48.690;9.466;2023-07-31T00:43:06;10.30;99.90
18974;DHT22;9621;48.690;9.466;2023-07-31T00:45:33;10.30;99.90
18974;DHT22;9621;48.690;9.466;2023-07-31T00:48:00;10.20;99.90
18974;DHT22;9621;48.690;9.466;2023-07-31T00:50:28;10.20;99.90
18974;DHT22;9621;48.690;9.466;2023-07-31T00:52:55;10.20;99.90
18974;DHT22;9621;48.690;9.466;2023-07-31T00:55:24;10.10;99.90
18974;DHT22;9621;48.690;9.466;2023-07-31T00:57:51;10.00;99.90
18974;DHT22;9621;48.690;9.466;2023-07-31T01:00:21;10.00;99.90
18974;DHT22;9621;48.690;9.466;2023-07-31T01:02:47;9.90;99.90
18974;DHT22;9621;48.690;9.466;2023-07-31T01:05:15;9.90;99.90
18974;DHT22;9621;48.690;9.466;2023-07-31T01:07:47;9.80;99.90
18974;DHT22;9621;48.690;9.466;2023-07-31T01:10:18;9.90;99.90
18974;DHT22;9621;48.690;9.466;2023-07-31T01:12:48;9.70;99.90
18974;DHT22;9621;48.690;9.466;2023-07-31T01:15:18;9.70;99.90
18974;DHT22;9621;48.690;9.466;2023-07-31T01:17:45;9.70;99.90
18974;DHT22;9621;48.690;9.466;2023-07-31T01:20:16;9.70;99.90
18974;DHT22;9621;48.690;9.466;2023-07-31T01:23:08;9.70;99.90
18974;DHT22;9621;48.690;9.466;2023-07-31T01:25:53;9.70;99.90
18974;DHT22;9621;48.690;9.466;2023-07-31T01:28:25;9.60;99.90
18974;DHT22;9621;48.690;9.466;2023-07-31T01:30:54;9.70;99.90
18974;DHT22;9621;48.690;9.466;2023-07-31T01:33:22;9.50;99.90
18974;DHT22;9621;48.690;9.466;2023-07-31T01:35:49;9.50;99.90
18974;DHT22;9621;48.690;9.466;2023-07-31T01:38:20;9.50;99.90
18974;DHT22;9621;48.690;9.466;2023-07-31T01:40:51;9.50;99.90
18974;DHT22;9621;48.690;9.466;2023-07-31T01:43:18;9.50;99.90
18974;DHT22;9621;48.690;9.466;2023-07-31T01:45:45;9.50;99.90
18974;DHT22;9621;48.690;9.466;2023-07-31T01:48:12;9.50;99.90
18974;DHT22;9621;48.690;9.466;2023-07-31T01:50:38;9.50;99.90
18974;DHT22;9621;48.690;9.466;2023-07-31T01:53:05;9.50;99.90
18974;DHT22;9621;48.690;9.466;2023-07-31T01:55:32;9.40;99.90
18974;DHT22;9621;48.690;9.466;2023-07-31T01:58:00;9.40;99.90
18974;DHT22;9621;48.690;9.466;2023-07-31T02:00:27;9.40;99.90
18974;DHT22;9621;48.690;9.466;2023-07-31T02:02:54;9.30;99.90
18974;DHT22;9621;48.690;9.466;2023-07-31T02:05:21;9.40;99.90
18974;DHT22;9621;48.690;9.466;2023-07-31T02:07:48;9.30;99.90
18974;DHT22;9621;48.690;9.466;2023-07-31T02:10:15;9.30;99.90
18974;DHT22;9621;48.690;9.466;2023-07-31T02:12:42;9.30;99.90
18974;DHT22;9621;48.690;9.466;2023-07-31T02:15:10;9.20;99.90
18974;DHT22;9621;48.690;9.466;2023-07-31T02:17:37;9.10;99.90
18974;DHT22;9621;48.690;9.466;2023-07-31T02:20:05;9.10;99.90
18974;DHT22;9621;48.690;9.466;2023-07-31T02:22:32;9.10;99.90
18974;DHT22;9621;48.690;9.466;2023-07-31T02:24:59;9.10;99.90
18974;DHT22;9621;48.690;9.466;2023-07-31T02:27:26;9.00;99.90
18974;DHT22;9621;48.690;9.466;2023-07-31T02:29:53;9.00;99.90
18974;DHT22;9621;48.690;9.466;2023-07-31T02:32:21;9.10;99.90
18974;DHT22;9621;48.690;9.466;2023-07-31T02:34:48;9.00;99.90
18974;DHT22;9621;48.690;9.466;2023-07-31T02:37:15;9.00;99.90
18974;DHT22;9621;48.690;9.466;2023-07-31T02:39:42;8.90;99.90
18974;DHT22;9621;48.690;9.466;2023-07-31T02:42:09;9.00;99.90
18974;DHT22;9621;48.690;9.466;2023-07-31T02:44:36;8.90;99.90
18974;DHT22;9621;48.690;9.466;2023-07-31T02:47:03;8.90;99.90
18974;DHT22;9621;48.690;9.466;2023-07-31T02:49:31;8.90;99.90
18974;DHT22;9621;48.690;9.466;2023-07-31T02:51:59;8.90;99.90
18974;DHT22;9621;48.690;9.466;2023-07-31T02:54:25;8.90;99.90
18974;DHT22;9621;48.690;9.466;2023-07-31T02:56:52;8.80;99.90
18974;DHT22;9621;48.690;9.466;2023-07-31T02:59:20;8.80;99.90
18974;DHT22;9621;48.690;9.466;2023-07-31T03:01:47;8.80;99.90
18974;DHT22;9621;48.690;9.466;2023-07-31T03:04:14;8.80;99.90
18974;DHT22;9621;48.690;9.466;2023-07-31T03:06:42;8.80;99.90
18974;DHT22;9621;48.690;9.466;2023-07-31T03:09:09;8.90;99.90
18974;DHT22;9621;48.690;9.466;2023-07-31T03:11:36;8.80;99.90
18974;DHT22;9621;48.690;9.466;2023-07-31T03:14:03;8.80;99.90
18974;DHT22;9621;48.690;9.466;2023-07-31T03:16:30;8.80;99.90
18974;DHT22;9621;48.690;9.466;2023-07-31T03:18:57;8.70;99.90
18974;DHT22;9621;48.690;9.466;2023-07-31T03:21:24;8.60;99.90
18974;DHT22;9621;48.690;9.466;2023-07-31T03:23:52;8.60;99.90
18974;DHT22;9621;48.690;9.466;2023-07-31T03:26:19;8.60;99.90
18974;DHT22;9621;48.690;9.466;2023-07-31T03:28:46;8.60;99.90
18974;DHT22;9621;48.690;9.466;2023-07-31T03:31:13;8.60;99.90
18974;DHT22;9621;48.690;9.466;2023-07-31T03:33:40;8.60;99.90
18974;DHT22;9621;48.690;9.466;2023-07-31T03:36:07;8.60;99.90
18974;DHT22;9621;48.690;9.466;2023-07-31T03:38:34;8.60;99.90
18974;DHT22;9621;48.690;9.466;2023-07-31T03:41:02;8.60;99.90
18974;DHT22;9621;48.690;9.466;2023-07-31T03:43:30;8.60;99.90
18974;DHT22;9621;48.690;9.466;2023-07-31T03:45:59;8.60;99.90
18974;DHT22;9621;48.690;9.466;2023-07-31T03:48:26;8.50;99.90
18974;DHT22;9621;48.690;9.466;2023-07-31T03:50:53;8.60;99.90
18974;DHT22;9621;48.690;9.466;2023-07-31T03:53:20;8.70;99.90
18974;DHT22;9621;48.690;9.466;2023-07-31T03:55:47;8.60;99.90
18974;DHT22;9621;48.690;9.466;2023-07-31T03:58:15;8.60;99.90
18974;DHT22;9621;48.690;9.466;2023-07-31T04:00:42;8.60;99.90
18974;DHT22;9621;48.690;9.466;2023-07-31T04:03:09;8.60;99.90
18974;DHT22;9621;48.690;9.466;2023-07-31T04:05:38;8.60;99.90
18974;DHT22;9621;48.690;9.466;2023-07-31T04:08:06;8.60;99.90
18974;DHT22;9621;48.690;9.466;2023-07-31T04:10:33;8.70;99.90
18974;DHT22;9621;48.690;9.466;2023-07-31T04:13:00;8.70;99.90
18974;DHT22;9621;48.690;9.466;2023-07-31T04:15:28;8.70;99.90
18974;DHT22;9621;48.690;9.466;2023-07-31T04:17:55;8.70;99.90
18974;DHT22;9621;48.690;9.466;2023-07-31T04:20:21;8.70;99.90
18974;DHT22;9621;48.690;9.466;2023-07-31T04:22:48;8.70;99.90
18974;DHT22;9621;48.690;9.466;2023-07-31T04:25:15;8.80;99.90
18974;DHT22;9621;48.690;9.466;2023-07-31T04:27:42;8.90;99.90
18974;DHT22;9621;48.690;9.466;2023-07-31T04:30:09;9.00;99.90
18974;DHT22;9621;48.690;9.466;2023-07-31T04:32:38;9.10;99.90
18974;DHT22;9621;48.690;9.466;2023-07-31T04:35:05;9.30;99.90
18974;DHT22;9621;48.690;9.466;2023-07-31T04:37:32;9.50;99.90
18974;DHT22;9621;48.690;9.466;2023-07-31T04:39:59;9.60;99.90
18974;DHT22;9621;48.690;9.466;2023-07-31T04:42:25;9.70;99.90
18974;DHT22;9621;48.690;9.466;2023-07-31T04:44:52;9.80;99.90
18974;DHT22;9621;48.690;9.466;2023-07-31T04:47:19;9.80;99.90
18974;DHT22;9621;48.690;9.466;2023-07-31T04:49:47;9.90;99.90
18974;DHT22;9621;48.690;9.466;2023-07-31T04:52:14;10.00;99.90
18974;DHT22;9621;48.690;9.466;2023-07-31T04:54:41;10.00;99.90
18974;DHT22;9621;48.690;9.466;2023-07-31T04:57:08;10.20;99.90
18974;DHT22;9621;48.690;9.466;2023-07-31T04:59:35;10.40;99.90
18974;DHT22;9621;48.690;9.466;2023-07-31T05:02:02;10.50;99.90
18974;DHT22;9621;48.690;9.466;2023-07-31T05:04:29;10.70;99.90
18974;DHT22;9621;48.690;9.466;2023-07-31T05:06:57;10.90;99.90
18974;DHT22;9621;48.690;9.466;2023-07-31T05:09:24;11.00;99.90
18974;DHT22;9621;48.690;9.466;2023-07-31T05:11:51;11.00;99.90
18974;DHT22;9621;48.690;9.466;2023-07-31T05:14:18;11.10;99.90
18974;DHT22;9621;48.690;9.466;2023-07-31T05:16:45;11.20;99.90
18974;DHT22;9621;48.690;9.466;2023-07-31T05:19:12;11.30;99.90
18974;DHT22;9621;48.690;9.466;2023-07-31T05:21:39;11.30;99.90
18974;DHT22;9621;48.690;9.466;2023-07-31T05:24:08;11.30;99.90
18974;DHT22;9621;48.690;9.466;2023-07-31T05:26:34;11.40;99.90
18974;DHT22;9621;48.690;9.466;2023-07-31T05:29:01;11.40;99.90
18974;DHT22;9621;48.690;9.466;2023-07-31T05:31:28;11.50;99.90
18974;DHT22;9621;48.690;9.466;2023-07-31T05:33:55;11.50;99.90
18974;DHT22;9621;48.690;9.466;2023-07-31T05:36:22;11.60;99.90
18974;DHT22;9621;48.690;9.466;2023-07-31T05:38:49;11.60;99.90
18974;DHT22;9621;48.690;9.466;2023-07-31T05:41:17;11.60;99.90
18974;DHT22;9621;48.690;9.466;2023-07-31T05:43:44;11.70;99.90
18974;DHT22;9621;48.690;9.466;2023-07-31T05:46:11;11.80;99.90
18974;DHT22;9621;48.690;9.466;2023-07-31T05:48:38;11.80;99.90
18974;DHT22;9621;48.690;9.466;2023-07-31T05:51:05;11.90;99.90
18974;DHT22;9621;48.690;9.466;2023-07-31T05:53:32;12.00;99.90
18974;DHT22;9621;48.690;9.466;2023-07-31T05:55:59;12.10;99.90
18974;DHT22;9621;48.690;9.466;2023-07-31T05:58:27;12.10;99.90
18974;DHT22;9621;48.690;9.466;2023-07-31T06:00:54;12.20;99.90
18974;DHT22;9621;48.690;9.466;2023-07-31T06:03:21;12.30;99.90
18974;DHT22;9621;48.690;9.466;2023-07-31T06:05:48;12.50;99.90
18974;DHT22;9621;48.690;9.466;2023-07-31T06:08:14;12.80;99.90
18974;DHT22;9621;48.690;9.466;2023-07-31T06:10:41;13.40;99.90
18974;DHT22;9621;48.690;9.466;2023-07-31T06:13:08;13.80;99.90
18974;DHT22;9621;48.690;9.466;2023-07-31T06:15:36;14.40;99.90
18974;DHT22;9621;48.690;9.466;2023-07-31T06:18:03;15.10;99.90
18974;DHT22;9621;48.690;9.466;2023-07-31T06:20:33;15.70;99.90
18974;DHT22;9621;48.690;9.466;2023-07-31T06:23:00;16.10;99.90
18974;DHT22;9621;48.690;9.466;2023-07-31T06:25:27;16.50;99.90
18974;DHT22;9621;48.690;9.466;2023-07-31T06:27:55;16.80;99.90
18974;DHT22;9621;48.690;9.466;2023-07-31T06:30:21;17.00;99.90
18974;DHT22;9621;48.690;9.466;2023-07-31T06:32:50;17.30;99.90
18974;DHT22;9621;48.690;9.466;2023-07-31T06:35:17;17.60;99.90
18974;DHT22;9621;48.690;9.466;2023-07-31T06:37:44;17.80;99.90
18974;DHT22;9621;48.690;9.466;2023-07-31T06:40:11;17.90;99.90
18974;DHT22;9621;48.690;9.466;2023-07-31T06:42:38;18.00;99.90
18974;DHT22;9621;48.690;9.466;2023-07-31T06:45:06;18.20;99.90
18974;DHT22;9621;48.690;9.466;2023-07-31T06:47:33;18.40;99.90
18974;DHT22;9621;48.690;9.466;2023-07-31T06:50:01;18.70;99.90
18974;DHT22;9621;48.690;9.466;2023-07-31T06:52:28;19.10;99.90
18974;DHT22;9621;48.690;9.466;2023-07-31T06:55:02;19.60;99.90
18974;DHT22;9621;48.690;9.466;2023-07-31T06:57:30;20.00;99.90
18974;DHT22;9621;48.690;9.466;2023-07-31T06:59:57;20.50;99.90
18974;DHT22;9621;48.690;9.466;2023-07-31T07:02:24;20.90;99.90
18974;DHT22;9621;48.690;9.466;2023-07-31T07:04:50;21.20;99.90
18974;DHT22;9621;48.690;9.466;2023-07-31T07:07:19;21.30;99.90
18974;DHT22;9621;48.690;9.466;2023-07-31T07:09:46;21.40;99.90
18974;DHT22;9621;48.690;9.466;2023-07-31T07:12:12;21.50;99.90
18974;DHT22;9621;48.690;9.466;2023-07-31T07:14:39;21.50;99.90
18974;DHT22;9621;48.690;9.466;2023-07-31T07:17:06;21.50;99.90
18974;DHT22;9621;48.690;9.466;2023-07-31T07:19:33;21.50;99.90
18974;DHT22;9621;48.690;9.466;2023-07-31T07:22:00;21.60;99.90
18974;DHT22;9621;48.690;9.466;2023-07-31T07:24:28;21.90;99.90
18974;DHT22;9621;48.690;9.466;2023-07-31T07:26:55;22.20;99.90
18974;DHT22;9621;48.690;9.466;2023-07-31T07:29:22;22.60;99.90
18974;DHT22;9621;48.690;9.466;2023-07-31T07:31:49;22.80;99.90
18974;DHT22;9621;48.690;9.466;2023-07-31T07:34:16;23.10;99.90
18974;DHT22;9621;48.690;9.466;2023-07-31T07:36:43;23.40;99.90
18974;DHT22;9621;48.690;9.466;2023-07-31T07:39:10;23.70;99.90
18974;DHT22;9621;48.690;9.466;2023-07-31T07:41:38;23.90;99.90
18974;DHT22;9621;48.690;9.466;2023-07-31T07:44:05;23.90;99.90
18974;DHT22;9621;48.690;9.466;2023-07-31T07:46:32;23.90;99.90
18974;DHT22;9621;48.690;9.466;2023-07-31T07:48:59;23.80;99.90
18974;DHT22;9621;48.690;9.466;2023-07-31T07:51:26;23.70;99.90
18974;DHT22;9621;48.690;9.466;2023-07-31T07:53:52;23.50;99.90
18974;DHT22;9621;48.690;9.466;2023-07-31T07:56:19;23.30;99.90
18974;DHT22;9621;48.690;9.466;2023-07-31T07:58:50;23.20;99.90
18974;DHT22;9621;48.690;9.466;2023-07-31T08:01:17;23.20;99.90
18974;DHT22;9621;48.690;9.466;2023-07-31T08:03:43;23.20;99.90
18974;DHT22;9621;48.690;9.466;2023-07-31T08:06:10;23.40;99.90
18974;DHT22;9621;48.690;9.466;2023-07-31T08:08:37;23.60;99.90
18974;DHT22;9621;48.690;9.466;2023-07-31T08:11:05;23.70;99.90
18974;DHT22;9621;48.690;9.466;2023-07-31T08:13:32;23.70;99.90
18974;DHT22;9621;48.690;9.466;2023-07-31T08:16:00;23.90;99.90
18974;DHT22;9621;48.690;9.466;2023-07-31T08:18:27;24.20;99.20
18974;DHT22;9621;48.690;9.466;2023-07-31T08:20:54;24.40;99.90
18974;DHT22;9621;48.690;9.466;2023-07-31T08:23:20;24.50;98.90
18974;DHT22;9621;48.690;9.466;2023-07-31T08:25:47;24.50;98.40
18974;DHT22;9621;48.690;9.466;2023-07-31T08:28:16;24.30;97.90
18974;DHT22;9621;48.690;9.466;2023-07-31T08:30:43;24.10;97.20
18974;DHT22;9621;48.690;9.466;2023-07-31T08:33:11;23.90;97.10
18974;DHT22;9621;48.690;9.466;2023-07-31T08:35:38;23.70;96.10
18974;DHT22;9621;48.690;9.466;2023-07-31T08:38:05;23.60;97.50
18974;DHT22;9621;48.690;9.466;2023-07-31T08:40:32;23.40;97.60
18974;DHT22;9621;48.690;9.466;2023-07-31T08:43:02;23.60;97.50
18974;DHT22;9621;48.690;9.466;2023-07-31T08:45:30;23.60;96.30
18974;DHT22;9621;48.690;9.466;2023-07-31T08:47:57;23.70;96.80
18974;DHT22;9621;48.690;9.466;2023-07-31T08:50:26;23.80;97.30
18974;DHT22;9621;48.690;9.466;2023-07-31T08:52:53;24.10;95.60
18974;DHT22;9621;48.690;9.466;2023-07-31T08:55:20;24.40;96.30
18974;DHT22;9621;48.690;9.466;2023-07-31T08:57:51;24.60;95.90
18974;DHT22;9621;48.690;9.466;2023-07-31T09:00:18;24.90;94.20
18974;DHT22;9621;48.690;9.466;2023-07-31T09:02:51;25.30;95.30
18974;DHT22;9621;48.690;9.466;2023-07-31T09:05:19;25.60;93.10
18974;DHT22;9621;48.690;9.466;2023-07-31T09:07:48;25.90;92.60
18974;DHT22;9621;48.690;9.466;2023-07-31T09:10:16;25.90;90.40
18974;DHT22;9621;48.690;9.466;2023-07-31T09:12:43;26.00;91.90
18974;DHT22;9621;48.690;9.466;2023-07-31T09:15:11;26.10;91.70
18974;DHT22;9621;48.690;9.466;2023-07-31T09:17:38;26.20;91.40
18974;DHT22;9621;48.690;9.466;2023-07-31T09:20:13;26.40;90.50
18974;DHT22;9621;48.690;9.466;2023-07-31T09:22:42;26.60;84.10
18974;DHT22;9621;48.690;9.466;2023-07-31T09:25:18;26.60;90.20
18974;DHT22;9621;48.690;9.466;2023-07-31T09:27:49;26.60;84.20
18974;DHT22;9621;48.690;9.466;2023-07-31T09:30:18;26.70;86.40
18974;DHT22;9621;48.690;9.466;2023-07-31T09:32:45;26.80;88.70
18974;DHT22;9621;48.690;9.466;2023-07-31T09:35:14;27.10;88.30
18974;DHT22;9621;48.690;9.466;2023-07-31T09:37:48;27.30;85.60
18974;DHT22;9621;48.690;9.466;2023-07-31T09:40:26;27.40;80.90
18974;DHT22;9621;48.690;9.466;2023-07-31T09:42:55;27.40;79.60
18974;DHT22;9621;48.690;9.466;2023-07-31T09:45:23;27.30;84.10
18974;DHT22;9621;48.690;9.466;2023-07-31T09:47:50;27.20;82.90
18974;DHT22;9621;48.690;9.466;2023-07-31T09:50:19;27.10;81.90
18974;DHT22;9621;48.690;9.466;2023-07-31T09:52:46;26.90;82.40
18974;DHT22;9621;48.690;9.466;2023-07-31T09:55:13;26.70;83.30
18974;DHT22;9621;48.690;9.466;2023-07-31T09:57:44;26.60;82.90
18974;DHT22;9621;48.690;9.466;2023-07-31T10:00:12;26.60;79.40
18974;DHT22;9621;48.690;9.466;2023-07-31T10:02:41;26.60;82.60
18974;DHT22;9621;48.690;9.466;2023-07-31T10:05:08;26.50;82.10
18974;DHT22;9621;48.690;9.466;2023-07-31T10:07:37;26.40;83.10
18974;DHT22;9621;48.690;9.466;2023-07-31T10:10:07;26.20;82.40
18974;DHT22;9621;48.690;9.466;2023-07-31T10:12:36;26.20;83.30
18974;DHT22;9621;48.690;9.466;2023-07-31T10:15:05;26.20;85.40
18974;DHT22;9621;48.690;9.466;2023-07-31T10:17:33;26.10;81.10
18974;DHT22;9621;48.690;9.466;2023-07-31T10:20:03;26.00;81.40
18974;DHT22;9621;48.690;9.466;2023-07-31T10:22:30;25.80;81.80
18974;DHT22;9621;48.690;9.466;2023-07-31T10:24:59;25.60;82.40
18974;DHT22;9621;48.690;9.466;2023-07-31T10:27:26;25.30;82.70
18974;DHT22;9621;48.690;9.466;2023-07-31T10:29:55;25.00;84.20
18974;DHT22;9621;48.690;9.466;2023-07-31T10:32:24;25.00;84.10
18974;DHT22;9621;48.690;9.466;2023-07-31T10:34:52;24.80;82.80
18974;DHT22;9621;48.690;9.466;2023-07-31T10:37:23;24.80;85.30
18974;DHT22;9621;48.690;9.466;2023-07-31T10:39:58;24.70;82.60
18974;DHT22;9621;48.690;9.466;2023-07-31T10:42:30;24.70;80.60
18974;DHT22;9621;48.690;9.466;2023-07-31T10:44:58;24.70;84.00
18974;DHT22;9621;48.690;9.466;2023-07-31T10:47:27;25.00;88.30
18974;DHT22;9621;48.690;9.466;2023-07-31T10:50:12;25.40;84.70
18974;DHT22;9621;48.690;9.466;2023-07-31T10:52:39;25.90;74.80
18974;DHT22;9621;48.690;9.466;2023-07-31T10:55:24;26.30;83.30
18974;DHT22;9621;48.690;9.466;2023-07-31T10:57:52;26.70;76.10
18974;DHT22;9621;48.690;9.466;2023-07-31T11:00:24;26.90;79.20
18974;DHT22;9621;48.690;9.466;2023-07-31T11:03:03;27.00;78.20
18974;DHT22;9621;48.690;9.466;2023-07-31T11:05:44;27.10;75.00
18974;DHT22;9621;48.690;9.466;2023-07-31T11:08:16;27.20;74.40
18974;DHT22;9621;48.690;9.466;2023-07-31T11:10:43;27.10;72.30
18974;DHT22;9621;48.690;9.466;2023-07-31T11:13:11;26.90;76.80
18974;DHT22;9621;48.690;9.466;2023-07-31T11:15:38;26.60;76.80
18974;DHT22;9621;48.690;9.466;2023-07-31T11:18:06;26.40;77.50
18974;DHT22;9621;48.690;9.466;2023-07-31T11:20:37;26.10;76.30
18974;DHT22;9621;48.690;9.466;2023-07-31T11:23:06;25.80;76.30
18974;DHT22;9621;48.690;9.466;2023-07-31T11:25:33;25.60;77.50
18974;DHT22;9621;48.690;9.466;2023-07-31T11:28:03;25.50;79.50
18974;DHT22;9621;48.690;9.466;2023-07-31T11:30:30;25.30;78.00
18974;DHT22;9621;48.690;9.466;2023-07-31T11:32:57;25.40;81.00
18974;DHT22;9621;48.690;9.466;2023-07-31T11:35:25;25.50;80.30
18974;DHT22;9621;48.690;9.466;2023-07-31T11:37:53;25.60;79.10
18974;DHT22;9621;48.690;9.466;2023-07-31T11:40:19;25.80;80.00
18974;DHT22;9621;48.690;9.466;2023-07-31T11:42:46;26.00;79.60
18974;DHT22;9621;48.690;9.466;2023-07-31T11:45:13;26.10;79.80
18974;DHT22;9621;48.690;9.466;2023-07-31T11:47:40;26.30;80.70
18974;DHT22;9621;48.690;9.466;2023-07-31T11:50:10;26.40;77.70
18974;DHT22;9621;48.690;9.466;2023-07-31T11:52:41;26.40;76.10
18974;DHT22;9621;48.690;9.466;2023-07-31T11:55:09;26.30;76.90
18974;DHT22;9621;48.690;9.466;2023-07-31T11:57:38;26.20;78.10
18974;DHT22;9621;48.690;9.466;2023-07-31T12:00:08;26.10;77.90
18974;DHT22;9621;48.690;9.466;2023-07-31T12:02:37;25.90;75.50
18974;DHT22;9621;48.690;9.466;2023-07-31T12:05:05;25.70;77.20
18974;DHT22;9621;48.690;9.466;2023-07-31T12:07:45;25.50;77.60
18974;DHT22;9621;48.690;9.466;2023-07-31T12:10:25;25.40;72.80
18974;DHT22;9621;48.690;9.466;2023-07-31T12:13:01;25.10;74.00
18974;DHT22;9621;48.690;9.466;2023-07-31T12:15:36;24.90;76.00
18974;DHT22;9621;48.690;9.466;2023-07-31T12:18:07;24.70;77.40
18974;DHT22;9621;48.690;9.466;2023-07-31T12:20:35;24.60;79.20
18974;DHT22;9621;48.690;9.466;2023-07-31T12:23:04;24.50;81.30
18974;DHT22;9621;48.690;9.466;2023-07-31T12:25:32;24.40;80.30
18974;DHT22;9621;48.690;9.466;2023-07-31T12:28:04;24.30;80.90
18974;DHT22;9621;48.690;9.466;2023-07-31T12:30:33;24.30;78.70
18974;DHT22;9621;48.690;9.466;2023-07-31T12:33:03;24.10;81.30
18974;DHT22;9621;48.690;9.466;2023-07-31T12:35:35;24.10;79.30
18974;DHT22;9621;48.690;9.466;2023-07-31T12:38:04;24.00;79.40
18974;DHT22;9621;48.690;9.466;2023-07-31T12:40:31;23.90;80.50
18974;DHT22;9621;48.690;9.466;2023-07-31T12:43:00;23.80;82.20
18974;DHT22;9621;48.690;9.466;2023-07-31T12:45:27;23.70;83.00
18974;DHT22;9621;48.690;9.466;2023-07-31T12:47:54;23.70;83.60
18974;DHT22;9621;48.690;9.466;2023-07-31T12:50:21;23.60;83.40
18974;DHT22;9621;48.690;9.466;2023-07-31T12:52:49;23.60;83.60
18974;DHT22;9621;48.690;9.466;2023-07-31T12:55:17;23.60;83.20
18974;DHT22;9621;48.690;9.466;2023-07-31T12:57:44;23.70;82.30
18974;DHT22;9621;48.690;9.466;2023-07-31T13:00:12;23.70;82.70
18974;DHT22;9621;48.690;9.466;2023-07-31T13:02:39;23.70;82.30
18974;DHT22;9621;48.690;9.466;2023-07-31T13:05:07;23.60;82.50
18974;DHT22;9621;48.690;9.466;2023-07-31T13:07:34;23.60;82.70
18974;DHT22;9621;48.690;9.466;2023-07-31T13:10:01;23.40;83.00
18974;DHT22;9621;48.690;9.466;2023-07-31T13:12:29;23.40;82.80
18974;DHT22;9621;48.690;9.466;2023-07-31T13:14:56;23.20;82.40
18974;DHT22;9621;48.690;9.466;2023-07-31T13:17:22;23.20;83.80
18974;DHT22;9621;48.690;9.466;2023-07-31T13:19:49;23.30;84.60
18974;DHT22;9621;48.690;9.466;2023-07-31T13:22:16;23.30;84.00
18974;DHT22;9621;48.690;9.466;2023-07-31T13:24:43;23.30;84.30
18974;DHT22;9621;48.690;9.466;2023-07-31T13:27:10;23.40;84.00
18974;DHT22;9621;48.690;9.466;2023-07-31T13:29:38;23.40;84.30
18974;DHT22;9621;48.690;9.466;2023-07-31T13:32:05;23.50;83.10
18974;DHT22;9621;48.690;9.466;2023-07-31T13:34:32;23.40;83.50
18974;DHT22;9621;48.690;9.466;2023-07-31T13:36:59;23.40;83.00
18974;DHT22;9621;48.690;9.466;2023-07-31T13:39:25;23.30;83.30
18974;DHT22;9621;48.690;9.466;2023-07-31T13:41:52;23.20;82.60
18974;DHT22;9621;48.690;9.466;2023-07-31T13:44:19;23.20;83.20
18974;DHT22;9621;48.690;9.466;2023-07-31T13:46:47;23.20;84.10
18974;DHT22;9621;48.690;9.466;2023-07-31T13:49:14;23.10;83.10
18974;DHT22;9621;48.690;9.466;2023-07-31T13:51:41;23.10;83.60
18974;DHT22;9621;48.690;9.466;2023-07-31T13:54:08;23.10;83.10
18974;DHT22;9621;48.690;9.466;2023-07-31T13:56:37;23.10;83.40
18974;DHT22;9621;48.690;9.466;2023-07-31T13:59:04;23.20;83.40
18974;DHT22;9621;48.690;9.466;2023-07-31T14:01:31;23.20;83.50
18974;DHT22;9621;48.690;9.466;2023-07-31T14:03:59;23.10;83.70
18974;DHT22;9621;48.690;9.466;2023-07-31T14:06:26;23.10;82.30
18974;DHT22;9621;48.690;9.466;2023-07-31T14:08:53;23.00;83.70
18974;DHT22;9621;48.690;9.466;2023-07-31T14:11:21;23.00;83.80
18974;DHT22;9621;48.690;9.466;2023-07-31T14:13:48;22.90;84.00
18974;DHT22;9621;48.690;9.466;2023-07-31T14:16:14;22.80;84.10
18974;DHT22;9621;48.690;9.466;2023-07-31T14:18:41;22.70;84.10
18974;DHT22;9621;48.690;9.466;2023-07-31T14:21:10;22.70;84.60
18974;DHT22;9621;48.690;9.466;2023-07-31T14:23:36;22.70;84.90
18974;DHT22;9621;48.690;9.466;2023-07-31T14:26:03;22.70;85.60
18974;DHT22;9621;48.690;9.466;2023-07-31T14:28:30;22.70;85.90
18974;DHT22;9621;48.690;9.466;2023-07-31T14:30:58;22.80;87.50
18974;DHT22;9621;48.690;9.466;2023-07-31T14:33:25;22.90;87.30
18974;DHT22;9621;48.690;9.466;2023-07-31T14:35:51;23.00;85.90
18974;DHT22;9621;48.690;9.466;2023-07-31T14:38:20;23.00;86.10
18974;DHT22;9621;48.690;9.466;2023-07-31T14:40:47;23.10;84.90
18974;DHT22;9621;48.690;9.466;2023-07-31T14:43:14;23.10;85.80
18974;DHT22;9621;48.690;9.466;2023-07-31T14:45:41;23.10;85.60
18974;DHT22;9621;48.690;9.466;2023-07-31T14:48:08;23.10;85.60
18974;DHT22;9621;48.690;9.466;2023-07-31T14:50:34;23.00;86.00
18974;DHT22;9621;48.690;9.466;2023-07-31T14:53:01;23.00;85.50
18974;DHT22;9621;48.690;9.466;2023-07-31T14:55:29;23.00;85.80
18974;DHT22;9621;48.690;9.466;2023-07-31T14:57:56;23.00;85.20
18974;DHT22;9621;48.690;9.466;2023-07-31T15:00:23;22.90;85.90
18974;DHT22;9621;48.690;9.466;2023-07-31T15:02:52;22.90;85.80
18974;DHT22;9621;48.690;9.466;2023-07-31T15:05:19;22.90;84.70
18974;DHT22;9621;48.690;9.466;2023-07-31T15:07:45;22.90;84.20
18974;DHT22;9621;48.690;9.466;2023-07-31T15:10:12;22.80;82.70
18974;DHT22;9621;48.690;9.466;2023-07-31T15:12:42;22.70;82.80
18974;DHT22;9621;48.690;9.466;2023-07-31T15:15:09;22.60;80.20
18974;DHT22;9621;48.690;9.466;2023-07-31T15:17:36;22.50;82.10
18974;DHT22;9621;48.690;9.466;2023-07-31T15:20:03;22.40;81.50
18974;DHT22;9621;48.690;9.466;2023-07-31T15:22:31;22.30;82.00
18974;DHT22;9621;48.690;9.466;2023-07-31T15:24:58;22.30;82.30
18974;DHT22;9621;48.690;9.466;2023-07-31T15:27:25;22.20;83.30
18974;DHT22;9621;48.690;9.466;2023-07-31T15:29:53;22.20;83.50
18974;DHT22;9621;48.690;9.466;2023-07-31T15:32:21;22.20;82.50
18974;DHT22;9621;48.690;9.466;2023-07-31T15:34:49;22.20;83.00
18974;DHT22;9621;48.690;9.466;2023-07-31T15:37:16;22.20;84.00
18974;DHT22;9621;48.690;9.466;2023-07-31T15:39:43;22.30;83.90
18974;DHT22;9621;48.690;9.466;2023-07-31T15:42:10;22.30;83.50
18974;DHT22;9621;48.690;9.466;2023-07-31T15:44:36;22.40;83.40
18974;DHT22;9621;48.690;9.466;2023-07-31T15:47:06;22.40;83.30
18974;DHT22;9621;48.690;9.466;2023-07-31T15:49:32;22.40;82.00
18974;DHT22;9621;48.690;9.466;2023-07-31T15:51:59;22.50;82.40
18974;DHT22;9621;48.690;9.466;2023-07-31T15:54:26;22.50;82.60